createdAt,value
2022-10-30T00:01:18.151Z,12.70
2022-10-30T00:03:44.803Z,7.90
2022-10-30T00:06:11.414Z,7.77
2022-10-30T00:08:38.115Z,6.60
2022-10-30T00:11:09.251Z,7.10
2022-10-30T00:13:36.747Z,6.80
2022-10-30T00:16:06.202Z,7.17
2022-10-30T00:18:35.609Z,6.10
2022-10-30T00:21:10.362Z,6.77
2022-10-30T00:23:37.535Z,6.40
2022-10-30T00:26:05.925Z,6.03
2022-10-30T00:28:33.061Z,6.57
2022-10-30T00:31:01.179Z,6.13
2022-10-30T00:33:28.345Z,6.10
2022-10-30T00:35:55.052Z,5.63
2022-10-30T00:38:22.195Z,5.07
2022-10-30T00:40:49.483Z,5.87
2022-10-30T00:43:39.711Z,5.57
2022-10-30T00:46:30.960Z,6.13
2022-10-30T00:49:13.711Z,5.53
2022-10-30T00:51:43.407Z,6.23
2022-10-30T00:54:10.553Z,5.70
2022-10-30T00:56:38.167Z,5.47
2022-10-30T00:59:09.538Z,6.87
2022-10-30T01:01:43.485Z,9.33
2022-10-30T01:04:11.805Z,9.13
2022-10-30T01:06:42.516Z,9.77
2022-10-30T01:09:09.325Z,19.63
2022-10-30T01:11:36.036Z,7.60
2022-10-30T01:14:07.409Z,5.93
2022-10-30T01:16:55.580Z,7.17
2022-10-30T01:19:56.540Z,6.43
2022-10-30T01:22:52.572Z,6.27
2022-10-30T01:25:37.948Z,6.20
2022-10-30T01:28:28.174Z,6.43
2022-10-30T01:31:17.138Z,6.20
2022-10-30T01:34:11.683Z,6.00
2022-10-30T01:36:42.591Z,5.43
2022-10-30T01:39:16.092Z,5.67
2022-10-30T01:41:42.738Z,6.50
2022-10-30T01:44:16.420Z,5.33
2022-10-30T01:47:05.087Z,5.70
2022-10-30T01:49:51.998Z,5.60
2022-10-30T01:52:28.483Z,5.37
2022-10-30T01:55:30.575Z,5.63
2022-10-30T01:58:07.107Z,5.80
2022-10-30T02:00:40.213Z,5.90
2022-10-30T02:03:07.057Z,5.63
2022-10-30T02:05:41.421Z,5.93
2022-10-30T02:08:08.204Z,5.50
2022-10-30T02:10:38.653Z,5.67
2022-10-30T02:13:05.537Z,6.27
2022-10-30T02:15:32.741Z,17.30
2022-10-30T02:18:00.685Z,14.80
2022-10-30T02:20:28.339Z,19.73
2022-10-30T02:22:58.960Z,10.43
2022-10-30T02:25:30.970Z,8.40
2022-10-30T02:27:58.982Z,9.80
2022-10-30T02:30:27.669Z,8.23
2022-10-30T02:32:54.406Z,8.90
2022-10-30T02:35:21.178Z,7.07
2022-10-30T02:37:49.275Z,5.30
2022-10-30T02:40:16.162Z,6.43
2022-10-30T02:42:42.958Z,6.57
2022-10-30T02:45:10.398Z,7.50
2022-10-30T02:47:37.038Z,6.20
2022-10-30T02:50:05.714Z,6.77
2022-10-30T02:52:35.087Z,5.70
2022-10-30T02:55:01.835Z,5.63
2022-10-30T02:57:29.687Z,6.07
2022-10-30T02:59:56.341Z,5.90
2022-10-30T03:02:23.355Z,6.60
2022-10-30T03:04:50.285Z,5.40
2022-10-30T03:07:16.941Z,5.33
2022-10-30T03:09:43.560Z,5.53
2022-10-30T03:12:10.213Z,5.40
2022-10-30T03:14:36.913Z,5.80
2022-10-30T03:17:04.550Z,5.10
2022-10-30T03:19:32.032Z,5.47
2022-10-30T03:21:58.896Z,5.60
2022-10-30T03:24:25.479Z,5.03
2022-10-30T03:26:52.477Z,5.00
2022-10-30T03:29:19.179Z,5.93
2022-10-30T03:31:45.946Z,5.47
2022-10-30T03:34:22.531Z,4.70
2022-10-30T03:36:49.343Z,5.67
2022-10-30T03:39:15.985Z,5.10
2022-10-30T03:41:44.207Z,5.20
2022-10-30T03:44:12.885Z,5.50
2022-10-30T03:46:39.510Z,4.80
2022-10-30T03:49:18.179Z,5.10
2022-10-30T03:51:45.293Z,4.90
2022-10-30T03:54:15.695Z,5.00
2022-10-30T03:56:46.401Z,4.57
2022-10-30T03:59:16.987Z,5.20
2022-10-30T04:01:53.582Z,5.40
2022-10-30T04:04:20.366Z,5.60
2022-10-30T04:06:48.065Z,4.80
2022-10-30T04:09:15.469Z,5.03
2022-10-30T04:11:44.048Z,5.47
2022-10-30T04:14:10.669Z,5.30
2022-10-30T04:16:37.297Z,4.80
2022-10-30T04:19:04.038Z,5.60
2022-10-30T04:21:30.685Z,5.07
2022-10-30T04:23:58.481Z,5.17
2022-10-30T04:26:28.425Z,5.37
2022-10-30T04:28:55.127Z,5.00
2022-10-30T04:31:21.908Z,5.83
2022-10-30T04:33:48.713Z,5.63
2022-10-30T04:36:17.834Z,5.40
2022-10-30T04:38:45.645Z,5.40
2022-10-30T04:41:12.783Z,5.67
2022-10-30T04:43:52.783Z,5.60
2022-10-30T04:46:19.558Z,5.87
2022-10-30T04:48:46.359Z,6.03
2022-10-30T04:51:13.428Z,4.60
2022-10-30T04:53:40.219Z,5.53
2022-10-30T04:56:08.986Z,5.13
2022-10-30T04:58:37.414Z,5.87
2022-10-30T05:01:06.776Z,5.40
2022-10-30T05:03:34.824Z,5.50
2022-10-30T05:06:07.570Z,4.97
2022-10-30T05:08:34.243Z,5.57
2022-10-30T05:11:07.523Z,5.70
2022-10-30T05:13:34.227Z,5.30
2022-10-30T05:16:01.028Z,5.10
2022-10-30T05:18:27.671Z,5.93
2022-10-30T05:20:54.303Z,4.70
2022-10-30T05:23:22.684Z,5.07
2022-10-30T05:25:49.455Z,5.00
2022-10-30T05:28:16.215Z,5.00
2022-10-30T05:30:53.370Z,5.53
2022-10-30T05:33:44.903Z,4.73
2022-10-30T05:36:11.961Z,5.37
2022-10-30T05:38:38.626Z,5.33
2022-10-30T05:41:09.274Z,5.83
2022-10-30T05:43:36.019Z,5.57
2022-10-30T05:46:02.667Z,5.50
2022-10-30T05:48:29.407Z,6.80
2022-10-30T05:50:56.804Z,5.77
2022-10-30T05:53:28.698Z,6.00
2022-10-30T05:55:58.148Z,5.97
2022-10-30T05:58:27.372Z,5.93
2022-10-30T06:00:57.641Z,6.00
2022-10-30T06:03:45.889Z,6.00
2022-10-30T06:06:12.952Z,6.63
2022-10-30T06:08:39.822Z,5.93
2022-10-30T06:11:22.968Z,6.23
2022-10-30T06:13:54.035Z,6.73
2022-10-30T06:16:28.432Z,5.80
2022-10-30T06:19:17.508Z,6.20
2022-10-30T06:21:47.601Z,5.43
2022-10-30T06:24:19.800Z,6.13
2022-10-30T06:27:02.091Z,6.27
2022-10-30T06:29:29.310Z,6.97
2022-10-30T06:31:57.080Z,6.30
2022-10-30T06:34:27.188Z,6.07
2022-10-30T06:36:54.187Z,6.07
2022-10-30T06:39:21.956Z,5.80
2022-10-30T06:42:20.796Z,5.23
2022-10-30T06:44:58.037Z,5.93
2022-10-30T06:47:24.707Z,5.20
2022-10-30T06:49:51.996Z,6.57
2022-10-30T06:52:22.879Z,5.50
2022-10-30T06:54:50.442Z,5.47
2022-10-30T06:57:41.207Z,6.03
2022-10-30T07:00:28.080Z,5.90
2022-10-30T07:03:10.915Z,5.80
2022-10-30T07:05:39.021Z,4.90
2022-10-30T07:08:05.649Z,6.60
2022-10-30T07:10:32.911Z,5.03
2022-10-30T07:13:18.414Z,5.80
2022-10-30T07:15:59.662Z,5.83
2022-10-30T07:18:32.346Z,5.30
2022-10-30T07:21:00.874Z,5.87
2022-10-30T07:23:28.526Z,5.67
2022-10-30T07:26:05.626Z,6.13
2022-10-30T07:28:36.100Z,5.60
2022-10-30T07:31:35.200Z,5.87
2022-10-30T07:34:20.911Z,5.67
2022-10-30T07:37:18.934Z,6.10
2022-10-30T07:39:53.730Z,6.00
2022-10-30T07:42:39.310Z,5.33
2022-10-30T07:48:08.816Z,5.73
2022-10-30T07:50:44.163Z,5.73
2022-10-30T07:53:10.782Z,5.73
2022-10-30T07:55:37.450Z,5.97
2022-10-30T07:58:27.018Z,5.70
2022-10-30T08:01:13.358Z,5.47
2022-10-30T08:03:40.179Z,5.43
2022-10-30T08:06:24.729Z,5.57
2022-10-30T08:08:53.765Z,5.30
2022-10-30T08:11:26.162Z,5.10
2022-10-30T08:13:54.256Z,5.27
2022-10-30T08:16:20.974Z,8.37
2022-10-30T08:18:50.054Z,5.67
2022-10-30T08:21:18.414Z,6.97
2022-10-30T08:24:20.516Z,5.17
2022-10-30T08:26:52.544Z,5.50
2022-10-30T08:29:19.544Z,6.50
2022-10-30T08:31:49.821Z,8.80
2022-10-30T08:34:23.423Z,6.23
2022-10-30T08:36:54.624Z,6.77
2022-10-30T08:39:21.306Z,6.17
2022-10-30T08:41:59.204Z,7.03
2022-10-30T08:44:29.322Z,5.23
2022-10-30T08:47:14.340Z,6.77
2022-10-30T08:49:41.500Z,7.17
2022-10-30T08:52:09.680Z,5.37
2022-10-30T08:54:36.363Z,5.83
2022-10-30T08:57:06.504Z,5.63
2022-10-30T08:59:35.488Z,5.40
2022-10-30T09:02:08.273Z,10.03
2022-10-30T09:04:54.810Z,14.97
2022-10-30T09:07:49.740Z,8.83
2022-10-30T09:10:35.657Z,15.23
2022-10-30T09:13:02.441Z,6.77
2022-10-30T09:15:30.289Z,11.20
2022-10-30T09:18:02.675Z,10.23
2022-10-30T09:20:30.605Z,6.77
2022-10-30T09:22:58.554Z,8.27
2022-10-30T09:25:25.618Z,14.63
2022-10-30T09:28:03.661Z,6.10
2022-10-30T09:30:44.083Z,5.70
2022-10-30T09:33:14.830Z,5.23
2022-10-30T09:36:04.293Z,5.17
2022-10-30T09:38:30.963Z,5.70
2022-10-30T09:41:29.624Z,4.70
2022-10-30T09:44:11.775Z,5.10
2022-10-30T09:47:23.492Z,7.07
2022-10-30T09:50:11.992Z,5.00
2022-10-30T09:53:13.069Z,4.83
2022-10-30T09:56:03.411Z,5.50
2022-10-30T09:58:49.857Z,6.50
2022-10-30T10:01:30.414Z,5.10
2022-10-30T10:04:07.719Z,4.87
2022-10-30T10:06:43.386Z,4.90
2022-10-30T10:09:31.218Z,4.97
2022-10-30T10:13:00.127Z,4.60
2022-10-30T10:15:47.335Z,4.70
2022-10-30T10:18:25.197Z,4.83
2022-10-30T10:20:57.562Z,4.50
2022-10-30T10:23:39.057Z,4.70
2022-10-30T10:26:21.291Z,4.03
2022-10-30T10:29:11.347Z,4.83
2022-10-30T10:31:55.895Z,4.43
2022-10-30T10:34:48.775Z,4.80
2022-10-30T10:37:21.884Z,4.20
2022-10-30T10:40:03.608Z,4.43
2022-10-30T10:42:48.748Z,4.43
2022-10-30T10:45:29.959Z,5.33
2022-10-30T10:48:20.949Z,5.37
2022-10-30T10:50:52.640Z,4.57
2022-10-30T10:53:41.623Z,4.90
2022-10-30T10:56:11.972Z,4.27
2022-10-30T10:59:01.432Z,4.33
2022-10-30T11:01:42.672Z,4.50
2022-10-30T11:04:10.162Z,3.70
2022-10-30T11:06:43.622Z,4.80
2022-10-30T11:09:17.033Z,4.50
2022-10-30T11:11:45.660Z,4.80
2022-10-30T11:14:18.728Z,4.17
2022-10-30T11:16:54.722Z,4.40
2022-10-30T11:19:21.530Z,4.20
2022-10-30T11:21:52.788Z,4.67
2022-10-30T11:24:29.808Z,5.20
2022-10-30T11:26:58.869Z,8.10
2022-10-30T11:29:30.048Z,14.57
2022-10-30T11:32:06.288Z,11.67
2022-10-30T11:34:35.769Z,6.87
2022-10-30T11:37:03.947Z,6.20
2022-10-30T11:39:35.407Z,6.33
2022-10-30T11:42:12.909Z,4.93
2022-10-30T11:44:46.056Z,5.10
2022-10-30T11:47:15.595Z,5.23
2022-10-30T11:49:56.268Z,4.27
2022-10-30T11:52:25.264Z,4.77
2022-10-30T11:55:10.317Z,4.10
2022-10-30T11:57:43.441Z,3.53
2022-10-30T12:00:26.603Z,4.03
2022-10-30T12:02:56.704Z,4.53
2022-10-30T12:05:43.576Z,4.30
2022-10-30T12:08:15.272Z,4.23
2022-10-30T12:10:51.368Z,3.53
2022-10-30T12:13:21.525Z,3.77
2022-10-30T12:15:51.826Z,4.60
2022-10-30T12:20:59.061Z,8.00
2022-10-30T12:23:28.416Z,7.87
2022-10-30T12:25:58.061Z,8.03
2022-10-30T12:28:34.953Z,5.13
2022-10-30T12:31:08.944Z,5.37
2022-10-30T12:33:44.404Z,8.30
2022-10-30T12:36:18.733Z,5.07
2022-10-30T12:39:02.890Z,5.50
2022-10-30T12:42:11.412Z,5.67
2022-10-30T12:44:44.378Z,4.50
2022-10-30T12:47:27.051Z,4.07
2022-10-30T12:50:01.034Z,4.30
2022-10-30T12:52:39.853Z,5.60
2022-10-30T12:55:35.498Z,5.27
2022-10-30T12:58:48.123Z,4.32
2022-10-30T13:01:34.754Z,4.63
2022-10-30T13:04:23.480Z,3.67
2022-10-30T13:07:15.562Z,4.03
2022-10-30T13:09:51.192Z,4.60
2022-10-30T13:12:30.084Z,4.40
2022-10-30T13:15:02.859Z,3.47
2022-10-30T13:17:30.394Z,4.13
2022-10-30T13:19:57.180Z,4.57
2022-10-30T13:22:43.946Z,3.67
2022-10-30T13:25:22.429Z,4.03
2022-10-30T13:28:17.317Z,3.72
2022-10-30T13:31:02.074Z,5.03
2022-10-30T13:33:42.416Z,4.53
2022-10-30T13:36:20.947Z,3.60
2022-10-30T13:39:03.781Z,3.53
2022-10-30T13:41:44.049Z,4.18
2022-10-30T13:44:16.509Z,4.20
2022-10-30T13:46:51.873Z,3.70
2022-10-30T13:49:30.902Z,4.40
2022-10-30T13:52:12.875Z,3.67
2022-10-30T13:54:55.488Z,4.43
2022-10-30T13:57:34.164Z,4.07
2022-10-30T14:00:07.307Z,3.65
2022-10-30T14:03:00.402Z,3.58
2022-10-30T14:05:47.489Z,4.15
2022-10-30T14:08:25.326Z,4.80
2022-10-30T14:10:57.693Z,4.80
2022-10-30T14:13:29.821Z,3.65
2022-10-30T14:16:01.060Z,3.60
2022-10-30T14:18:51.961Z,5.35
2022-10-30T14:21:43.466Z,4.78
2022-10-30T14:24:29.581Z,3.90
2022-10-30T14:27:05.118Z,4.40
2022-10-30T14:29:35.060Z,3.47
2022-10-30T14:32:22.742Z,6.60
2022-10-30T14:34:53.057Z,5.75
2022-10-30T14:37:22.643Z,10.40
2022-10-30T14:39:50.678Z,4.75
2022-10-30T14:42:29.989Z,13.48
2022-10-30T14:45:25.506Z,4.45
2022-10-30T14:48:22.313Z,6.20
2022-10-30T14:51:05.534Z,9.18
2022-10-30T14:53:50.787Z,4.93
2022-10-30T14:59:11.126Z,19.55
2022-10-30T15:01:43.979Z,15.52
2022-10-30T15:04:16.090Z,6.60
2022-10-30T15:06:55.292Z,5.80
2022-10-30T15:09:28.968Z,7.78
2022-10-30T15:12:08.556Z,7.07
2022-10-30T15:14:53.854Z,9.15
2022-10-30T15:17:41.390Z,6.10
2022-10-30T15:20:33.664Z,6.80
2022-10-30T15:23:08.801Z,8.03
2022-10-30T15:25:39.798Z,6.70
2022-10-30T15:28:06.704Z,5.90
2022-10-30T15:30:33.408Z,5.82
2022-10-30T15:33:00.361Z,4.70
2022-10-30T15:35:29.171Z,6.40
2022-10-30T15:38:00.030Z,8.52
2022-10-30T15:40:28.044Z,5.28
2022-10-30T15:42:56.477Z,3.85
2022-10-30T15:45:34.079Z,5.18
2022-10-30T15:48:25.845Z,5.43
2022-10-30T15:51:01.251Z,4.77
2022-10-30T15:54:01.851Z,4.68
2022-10-30T15:56:44.439Z,5.03
2022-10-30T15:59:30.413Z,4.53
2022-10-30T16:01:58.393Z,4.87
2022-10-30T16:04:31.382Z,5.67
2022-10-30T16:07:05.125Z,4.60
2022-10-30T16:09:31.983Z,5.15
2022-10-30T16:12:00.702Z,6.77
2022-10-30T16:14:32.623Z,4.90
2022-10-30T16:17:00.464Z,5.13
2022-10-30T16:19:30.983Z,5.22
2022-10-30T16:21:58.813Z,4.73
2022-10-30T16:24:32.965Z,4.87
2022-10-30T16:27:05.338Z,4.97
2022-10-30T16:29:33.702Z,5.30
2022-10-30T16:32:01.525Z,4.90
2022-10-30T16:34:31.973Z,4.43
2022-10-30T16:37:00.025Z,11.37
2022-10-30T16:39:31.753Z,9.47
2022-10-30T16:42:05.526Z,7.17
2022-10-30T16:44:38.489Z,7.60
2022-10-30T16:47:32.580Z,8.00
2022-10-30T16:50:24.349Z,6.60
2022-10-30T16:52:53.945Z,12.00
2022-10-30T16:55:23.302Z,9.03
2022-10-30T16:58:00.651Z,9.87
2022-10-30T17:00:32.729Z,9.20
2022-10-30T17:03:12.329Z,10.27
2022-10-30T17:05:42.691Z,8.37
2022-10-30T17:08:18.626Z,8.23
2022-10-30T17:10:57.175Z,8.33
2022-10-30T17:13:38.706Z,14.07
2022-10-30T17:16:32.797Z,18.63
2022-10-30T17:19:20.576Z,19.03
2022-10-30T17:21:52.214Z,17.77
2022-10-30T17:24:22.934Z,13.83
2022-10-30T17:27:01.318Z,13.03
2022-10-30T17:29:37.009Z,12.33
2022-10-30T17:32:24.707Z,8.83
2022-10-30T17:35:01.049Z,8.43
2022-10-30T17:37:28.397Z,8.33
2022-10-30T17:39:55.288Z,8.83
2022-10-30T17:42:22.527Z,7.67
2022-10-30T17:44:49.709Z,8.00
2022-10-30T17:47:21.217Z,12.90
2022-10-30T17:49:49.466Z,12.77
2022-10-30T17:52:21.380Z,11.37
2022-10-30T17:54:48.758Z,10.13
2022-10-30T17:57:18.400Z,7.63
2022-10-30T17:59:45.262Z,9.00
2022-10-30T18:02:15.193Z,8.07
2022-10-30T18:04:42.960Z,6.90
2022-10-30T18:07:11.453Z,6.30
2022-10-30T18:09:39.141Z,6.80
2022-10-30T18:12:08.368Z,6.60
2022-10-30T18:14:35.197Z,5.87
2022-10-30T18:17:02.180Z,5.33
2022-10-30T18:19:28.989Z,6.60
2022-10-30T18:21:55.741Z,12.63
2022-10-30T18:24:22.644Z,12.00
2022-10-30T18:26:49.488Z,12.67
2022-10-30T18:29:16.307Z,13.23
2022-10-30T18:31:43.127Z,8.50
2022-10-30T18:34:19.909Z,6.27
2022-10-30T18:36:46.946Z,6.77
2022-10-30T18:39:14.339Z,5.43
2022-10-30T18:41:43.433Z,6.03
2022-10-30T18:44:19.076Z,6.30
2022-10-30T18:46:46.121Z,5.43
2022-10-30T18:49:13.110Z,7.50
2022-10-30T18:51:40.743Z,6.97
2022-10-30T18:54:17.596Z,6.47
2022-10-30T18:56:47.819Z,7.60
2022-10-30T18:59:18.816Z,7.83
2022-10-30T19:01:50.589Z,7.87
2022-10-30T19:04:26.162Z,6.73
2022-10-30T19:06:53.111Z,7.50
2022-10-30T19:09:20.079Z,7.00
2022-10-30T19:11:51.297Z,6.77
2022-10-30T19:14:19.216Z,5.67
2022-10-30T19:16:46.137Z,7.80
2022-10-30T19:19:15.782Z,6.17
2022-10-30T19:21:42.605Z,7.80
2022-10-30T19:24:17.916Z,7.57
2022-10-30T19:26:45.818Z,7.67
2022-10-30T19:29:14.123Z,6.93
2022-10-30T19:31:41.775Z,7.03
2022-10-30T19:34:09.943Z,12.80
2022-10-30T19:36:38.067Z,14.90
2022-10-30T19:39:16.151Z,15.13
2022-10-30T19:41:44.478Z,6.70
2022-10-30T19:44:16.932Z,8.43
2022-10-30T19:46:44.451Z,8.67
2022-10-30T19:49:21.227Z,7.17
2022-10-30T19:51:49.607Z,7.17
2022-10-30T19:54:19.131Z,6.90
2022-10-30T19:56:46.344Z,6.40
2022-10-30T19:59:15.054Z,7.00
2022-10-30T20:01:44.001Z,6.87
2022-10-30T20:04:14.357Z,7.07
2022-10-30T20:06:41.977Z,6.90
2022-10-30T20:09:14.190Z,7.73
2022-10-30T20:11:42.508Z,7.20
2022-10-30T20:14:10.353Z,8.00
2022-10-30T20:16:39.299Z,8.17
2022-10-30T20:19:36.842Z,6.73
2022-10-30T20:22:07.224Z,7.13
2022-10-30T20:24:34.742Z,11.37
2022-10-30T20:27:04.429Z,12.67
2022-10-30T20:29:31.649Z,13.37
2022-10-30T20:32:00.185Z,8.80
2022-10-30T20:34:28.452Z,7.37
2022-10-30T20:36:55.455Z,11.20
2022-10-30T20:39:22.373Z,13.87
2022-10-30T20:41:51.476Z,9.70
2022-10-30T20:44:19.914Z,9.20
2022-10-30T20:46:46.933Z,6.53
2022-10-30T20:49:17.818Z,6.53
2022-10-30T20:51:46.099Z,6.93
2022-10-30T20:54:12.753Z,6.10
2022-10-30T20:56:40.599Z,7.57
2022-10-30T20:59:07.291Z,7.87
2022-10-30T21:01:34.394Z,7.23
2022-10-30T21:04:01.904Z,6.47
2022-10-30T21:06:29.053Z,6.50
2022-10-30T21:08:56.452Z,6.83
2022-10-30T21:11:23.326Z,6.73
2022-10-30T21:13:50.123Z,7.87
2022-10-30T21:16:16.912Z,7.23
2022-10-30T21:18:43.822Z,6.80
2022-10-30T21:21:13.390Z,7.53
2022-10-30T21:23:41.257Z,7.63
2022-10-30T21:26:10.956Z,7.77
2022-10-30T21:28:39.281Z,7.60
2022-10-30T21:31:08.937Z,7.90
2022-10-30T21:33:36.759Z,7.10
2022-10-30T21:36:12.739Z,6.70
2022-10-30T21:38:47.379Z,6.00
2022-10-30T21:41:17.189Z,7.80
2022-10-30T21:43:49.421Z,8.03
2022-10-30T21:46:16.308Z,7.07
2022-10-30T21:48:43.148Z,6.43
2022-10-30T21:51:15.182Z,7.13
2022-10-30T21:53:42.183Z,6.73
2022-10-30T21:56:12.062Z,7.27
2022-10-30T21:58:38.867Z,7.13
2022-10-30T22:01:06.670Z,7.13
2022-10-30T22:03:33.765Z,7.40
2022-10-30T22:06:06.318Z,7.47
2022-10-30T22:08:33.058Z,7.10
2022-10-30T22:11:07.800Z,8.53
2022-10-30T22:13:35.486Z,6.87
2022-10-30T22:16:03.495Z,7.37
2022-10-30T22:18:30.326Z,6.97
2022-10-30T22:21:08.584Z,7.90
2022-10-30T22:23:36.936Z,6.50
2022-10-30T22:26:10.536Z,7.53
2022-10-30T22:28:37.149Z,8.27
2022-10-30T22:31:06.278Z,8.13
2022-10-30T22:33:33.457Z,8.20
2022-10-30T22:36:10.173Z,7.07
2022-10-30T22:38:36.860Z,8.00
2022-10-30T22:41:13.163Z,7.50
2022-10-30T22:43:41.346Z,8.67
2022-10-30T22:46:08.521Z,7.60
2022-10-30T22:48:35.139Z,8.27
2022-10-30T22:51:04.704Z,8.20
2022-10-30T22:53:33.111Z,7.50
2022-10-30T22:56:00.717Z,7.37
2022-10-30T22:58:29.418Z,7.23
2022-10-30T23:01:07.444Z,7.87
2022-10-30T23:03:34.158Z,7.20
2022-10-30T23:06:01.025Z,8.60
2022-10-30T23:08:27.630Z,7.07
2022-10-30T23:10:54.479Z,7.20
2022-10-30T23:15:49.641Z,7.07
2022-10-30T23:18:16.406Z,6.53
2022-10-30T23:20:45.692Z,7.70
2022-10-30T23:23:13.176Z,7.17
2022-10-30T23:25:40.309Z,6.77
2022-10-30T23:28:11.501Z,6.97
2022-10-30T23:30:42.466Z,8.03
2022-10-30T23:33:09.804Z,7.40
2022-10-30T23:35:36.517Z,7.87
2022-10-30T23:38:04.162Z,7.90
2022-10-30T23:40:31.034Z,7.23
2022-10-30T23:42:57.900Z,6.70
2022-10-30T23:45:24.897Z,6.60
2022-10-30T23:47:51.538Z,6.33
2022-10-30T23:50:18.156Z,6.40
2022-10-30T23:52:44.733Z,7.10
2022-10-30T23:55:11.597Z,6.73
2022-10-30T23:57:38.951Z,8.37
